createdAt,value
2019-05-16T00:03:39.442Z,12.49
2019-05-16T00:08:41.562Z,12.49
2019-05-16T00:13:42.938Z,12.46
2019-05-16T00:18:44.375Z,12.45
2019-05-16T00:23:45.738Z,12.53
2019-05-16T00:28:48.505Z,12.49
2019-05-16T00:33:48.813Z,12.39
2019-05-16T00:38:49.845Z,12.34
2019-05-16T00:43:51.223Z,12.26
2019-05-16T00:48:52.586Z,12.16
2019-05-16T00:53:53.946Z,12.22
2019-05-16T00:58:55.305Z,12.24
2019-05-16T01:03:58.566Z,12.21
2019-05-16T01:08:58.073Z,12.27
2019-05-16T01:13:59.448Z,12.19
2019-05-16T01:19:00.776Z,12.15
2019-05-16T01:24:02.143Z,12.24
2019-05-16T01:29:03.554Z,12.19
2019-05-16T01:34:07.652Z,12.07
2019-05-16T01:39:07.974Z,12.09
2019-05-16T01:44:08.496Z,12.15
2019-05-16T01:49:09.874Z,12.15
2019-05-16T01:54:11.232Z,12.12
2019-05-16T01:59:13.033Z,12.14
2019-05-16T02:04:14.455Z,12.09
2019-05-16T02:09:15.775Z,12.12
2019-05-16T02:14:17.686Z,11.97
2019-05-16T02:19:18.810Z,11.99
2019-05-16T02:24:19.776Z,11.89
2019-05-16T02:29:21.158Z,11.87
2019-05-16T02:34:23.258Z,11.79
2019-05-16T02:39:30.497Z,11.68
2019-05-16T02:44:32.206Z,11.74
2019-05-16T02:49:34.184Z,11.72
2019-05-16T02:54:35.202Z,11.77
2019-05-16T02:59:36.597Z,11.78
2019-05-16T03:04:43.214Z,11.77
2019-05-16T03:09:41.068Z,11.69
2019-05-16T03:14:41.978Z,11.57
2019-05-16T03:19:45.020Z,11.44
2019-05-16T03:24:46.428Z,11.43
2019-05-16T03:29:50.462Z,11.29
2019-05-16T03:34:54.122Z,11.27
2019-05-16T03:39:51.491Z,11.23
2019-05-16T03:44:52.055Z,11.22
2019-05-16T03:49:54.205Z,11.14
2019-05-16T03:54:55.576Z,11.12
2019-05-16T03:59:57.001Z,11.19
2019-05-16T04:05:01.377Z,11.18
2019-05-16T04:10:02.276Z,11.18
2019-05-16T04:15:01.970Z,11.11
2019-05-16T04:20:02.638Z,11.09
2019-05-16T04:25:04.758Z,11.14
2019-05-16T04:30:06.198Z,11.16
2019-05-16T04:35:10.944Z,11.09
2019-05-16T04:40:11.867Z,11.13
2019-05-16T04:45:11.861Z,11.23
2019-05-16T04:50:12.257Z,11.37
2019-05-16T04:55:13.176Z,11.04
2019-05-16T05:00:14.568Z,11.22
2019-05-16T05:05:16.658Z,11.31
2019-05-16T05:10:20.631Z,11.40
2019-05-16T05:15:21.225Z,11.59
2019-05-16T05:20:21.194Z,11.61
2019-05-16T05:25:22.340Z,11.61
2019-05-16T05:30:23.699Z,11.94
2019-05-16T05:35:25.006Z,12.15
2019-05-16T05:40:27.076Z,12.24
2019-05-16T05:45:30.507Z,12.34
2019-05-16T05:50:30.717Z,12.40
2019-05-16T05:55:31.979Z,12.46
2019-05-16T06:00:34.417Z,12.54
2019-05-16T06:05:36.519Z,12.67
2019-05-16T06:10:37.911Z,12.63
2019-05-16T06:15:40.010Z,12.54
2019-05-16T06:20:40.684Z,12.42
2019-05-16T06:25:42.083Z,12.50
2019-05-16T06:30:43.480Z,12.46
2019-05-16T06:35:44.887Z,12.49
2019-05-16T06:40:49.034Z,12.60
2019-05-16T06:45:47.688Z,12.87
2019-05-16T06:50:51.419Z,12.80
2019-05-16T06:55:51.226Z,12.92
2019-05-16T07:00:52.915Z,13.01
2019-05-16T07:05:53.935Z,13.05
2019-05-16T07:10:55.245Z,13.11
2019-05-16T07:15:56.553Z,13.00
2019-05-16T07:21:00.034Z,13.21
2019-05-16T07:26:00.775Z,13.07
2019-05-16T07:31:14.194Z,12.90
2019-05-16T07:36:02.890Z,12.92
2019-05-16T07:41:04.270Z,13.26
2019-05-16T07:46:06.353Z,13.46
2019-05-16T07:51:10.114Z,13.93
2019-05-16T07:56:10.560Z,14.12
2019-05-16T08:01:12.529Z,14.19
2019-05-16T08:06:11.862Z,14.27
2019-05-16T08:11:13.259Z,14.49
2019-05-16T08:16:14.709Z,14.49
2019-05-16T08:26:17.487Z,14.40
2019-05-16T08:31:21.400Z,14.65
2019-05-16T08:36:21.181Z,14.29
2019-05-16T08:41:22.265Z,14.67
2019-05-16T08:46:23.133Z,14.75
2019-05-16T08:51:25.250Z,14.93
2019-05-16T08:56:26.546Z,14.58
2019-05-16T09:01:27.929Z,15.11
2019-05-16T09:06:32.057Z,14.17
2019-05-16T09:10:26.225Z,14.43
2019-05-16T09:11:41.433Z,14.33
2019-05-16T09:16:32.896Z,14.72
2019-05-16T09:21:34.303Z,14.98
2019-05-16T09:26:38.102Z,15.55
2019-05-16T09:31:38.541Z,15.52
2019-05-16T09:36:38.834Z,15.83
2019-05-16T09:41:55.011Z,16.12
2019-05-16T09:46:43.060Z,16.07
2019-05-16T09:51:46.523Z,16.18
2019-05-16T09:56:46.431Z,15.32
2019-05-16T10:01:47.758Z,15.92
2019-05-16T10:06:48.607Z,16.12
2019-05-16T10:12:05.503Z,16.12
2019-05-16T10:16:51.685Z,16.19
2019-05-16T10:21:53.809Z,16.65
2019-05-16T10:26:57.042Z,16.77
2019-05-16T10:31:56.975Z,17.05
2019-05-16T10:36:57.974Z,17.33
2019-05-16T10:41:59.344Z,17.61
2019-05-16T10:47:01.427Z,17.12
2019-05-16T10:52:02.868Z,15.81
2019-05-16T10:57:04.273Z,16.21
2019-05-16T11:02:10.837Z,16.95
2019-05-16T11:07:12.298Z,16.40
2019-05-16T11:12:13.684Z,15.99
2019-05-16T11:17:18.818Z,16.75
2019-05-16T11:22:16.397Z,16.38
2019-05-16T11:27:18.487Z,16.98
2019-05-16T11:32:19.814Z,17.72
2019-05-16T11:37:21.219Z,17.78
2019-05-16T11:42:22.583Z,18.12
2019-05-16T11:47:23.993Z,17.10
2019-05-16T11:52:25.337Z,18.04
2019-05-16T11:57:26.788Z,18.07
2019-05-16T12:02:28.181Z,17.64
2019-05-16T12:07:33.540Z,17.56
2019-05-16T12:12:30.896Z,17.16
2019-05-16T12:17:32.343Z,17.61
2019-05-16T12:22:33.722Z,17.20
2019-05-16T12:27:41.711Z,17.79
2019-05-16T12:32:36.781Z,17.87
2019-05-16T12:37:38.555Z,17.88
2019-05-16T12:42:39.895Z,17.83
2019-05-16T12:47:41.260Z,16.47
2019-05-16T12:52:42.553Z,15.57
2019-05-16T12:57:43.908Z,15.37
2019-05-16T13:02:47.293Z,16.02
2019-05-16T13:07:47.654Z,15.83
2019-05-16T13:12:48.054Z,15.65
2019-05-16T13:17:49.400Z,15.65
2019-05-16T13:22:50.730Z,16.20
2019-05-16T13:27:52.058Z,15.62
2019-05-16T13:32:53.468Z,16.52
2019-05-16T13:37:54.836Z,16.13
2019-05-16T13:42:57.313Z,16.82
2019-05-16T14:49:03.709Z,16.54
2019-05-16T14:54:07.548Z,16.73
2019-05-16T14:59:08.245Z,16.66
2019-05-16T15:04:08.096Z,16.79
2019-05-16T15:09:09.424Z,16.88
2019-05-16T15:14:10.808Z,16.94
2019-05-16T15:19:12.184Z,16.87
2019-05-16T15:24:13.485Z,16.96
2019-05-16T15:29:16.533Z,17.03
2019-05-16T15:34:17.820Z,16.97
2019-05-16T15:39:19.177Z,16.99
2019-05-16T15:44:20.568Z,16.93
2019-05-16T15:49:21.860Z,16.83
2019-05-16T15:54:23.993Z,16.68
2019-05-16T15:59:27.240Z,16.62
2019-05-16T16:41:51.664Z,16.01
2019-05-16T17:11:01.958Z,15.99
2019-05-16T17:16:03.228Z,16.06
2019-05-16T17:21:04.508Z,16.14
2019-05-16T17:26:07.280Z,16.19
2019-05-16T17:31:07.422Z,15.99
2019-05-16T17:36:09.424Z,15.97
2019-05-16T17:41:10.025Z,15.88
2019-05-16T17:46:11.365Z,15.93
2019-05-16T17:51:13.338Z,15.77
2019-05-16T17:56:17.137Z,15.63
2019-05-16T18:01:17.206Z,15.69
2019-05-16T18:06:18.206Z,15.70
2019-05-16T18:11:19.583Z,15.75
2019-05-16T18:16:21.018Z,15.72
2019-05-16T18:21:22.402Z,15.64
2019-05-16T18:26:23.720Z,15.68
2019-05-16T18:31:26.641Z,15.67
2019-05-16T18:36:27.793Z,15.69
2019-05-16T18:41:29.164Z,15.68
2019-05-16T18:46:30.522Z,15.76
2019-05-16T18:51:32.186Z,15.61
2019-05-16T18:56:36.173Z,15.64
2019-05-16T19:01:37.563Z,15.65
2019-05-16T19:06:37.593Z,15.67
2019-05-16T19:11:39.749Z,15.41
2019-05-16T19:16:41.151Z,15.37
2019-05-16T19:21:42.454Z,15.44
2019-05-16T19:26:43.805Z,15.43
2019-05-16T19:31:46.990Z,15.41
2019-05-16T19:36:47.001Z,15.43
2019-05-16T19:41:48.047Z,15.39
2019-05-16T19:46:49.629Z,15.32
2019-05-16T19:52:04.118Z,15.35
2019-05-16T19:57:09.917Z,15.37
2019-05-16T20:02:11.827Z,15.42
2019-05-16T20:07:16.762Z,15.42
2019-05-16T20:12:19.070Z,15.30
2019-05-16T20:17:21.273Z,15.34
2019-05-16T20:22:26.122Z,15.34
2019-05-16T20:27:27.460Z,15.26
2019-05-16T20:32:28.248Z,15.33
2019-05-16T20:37:29.521Z,15.35
2019-05-16T20:42:30.823Z,15.31
2019-05-16T20:47:32.241Z,15.29
2019-05-16T20:52:33.553Z,15.27
2019-05-16T20:57:37.301Z,15.27
2019-05-16T21:02:37.879Z,15.27
2019-05-16T21:07:37.792Z,15.15
2019-05-16T21:12:40.371Z,15.05
2019-05-16T21:17:40.474Z,15.01
2019-05-16T21:22:41.781Z,15.03
2019-05-16T21:27:46.341Z,14.95
2019-05-16T21:32:47.130Z,14.84
2019-05-16T21:37:46.836Z,14.81
2019-05-16T21:42:48.057Z,14.78
2019-05-16T21:47:50.137Z,14.70
2019-05-16T21:52:52.210Z,14.63
2019-05-16T21:57:54.239Z,14.58
2019-05-16T22:02:57.315Z,14.55
2019-05-16T22:07:56.960Z,14.53
2019-05-16T22:12:58.334Z,14.55
2019-05-16T22:17:59.736Z,14.53
2019-05-16T22:23:01.154Z,14.49
2019-05-16T22:28:02.971Z,14.42
2019-05-16T22:33:08.953Z,14.35
2019-05-16T22:38:06.559Z,14.32
2019-05-16T22:43:10.181Z,14.28
2019-05-16T22:48:08.676Z,14.17
2019-05-16T22:53:10.021Z,14.13
2019-05-16T22:58:12.152Z,14.09
2019-05-16T23:03:13.566Z,14.05
2019-05-16T23:08:16.433Z,14.00
2019-05-16T23:13:23.832Z,13.85
2019-05-16T23:18:26.695Z,13.95
2019-05-16T23:23:26.733Z,13.88
2019-05-16T23:28:28.050Z,13.90
2019-05-16T23:33:29.360Z,13.88
2019-05-16T23:38:30.712Z,13.80
2019-05-16T23:43:32.088Z,13.71
2019-05-16T23:48:33.390Z,13.69
2019-05-16T23:53:36.941Z,13.65
2019-05-16T23:58:36.980Z,13.68
